Time;durP1;ratioP1;P1;durP2;ratioP2;P2;SDS_P1;SDS_P2;PMS_P1;PMS_P2;Temp;Humidity;BMP_temperature;BMP_pressure;BME280_temperature;BME280_humidity;BME280_pressure;Samples;Min_cycle;Max_cycle;Signal;HPM_P1;HPM_P2
2022/05/10 00:00:21;;;;;;;6.22;1.80;;;;;;;;;;5017641;28;20034;-75
2022/05/10 00:02:49;;;;;;;3.47;1.55;;;;;;;;;;5013462;28;20038;-74
2022/05/10 00:05:16;;;;;;;5.05;1.50;;;;;;;;;;5016007;28;20054;-74
2022/05/10 00:07:42;;;;;;;2.22;1.15;;;;;;;;;;5014655;28;20057;-74
2022/05/10 00:10:09;;;;;;;5.65;1.13;;;;;;;;;;5011848;28;20042;-74
2022/05/10 00:12:35;;;;;;;2.53;1.02;;;;;;;;;;5011471;28;20033;-74
2022/05/10 00:15:01;;;;;;;3.92;1.23;;;;;;;;;;5017617;28;20029;-74
2022/05/10 00:17:31;;;;;;;8.70;2.97;;;;;;;;;;5012938;28;20459;-74
2022/05/10 00:19:58;;;;;;;12.32;3.28;;;;;;;;;;5017298;28;20025;-74
2022/05/10 00:22:24;;;;;;;6.20;2.47;;;;;;;;;;5009471;28;20678;-74
2022/05/10 00:24:50;;;;;;;5.57;2.08;;;;;;;;;;5016954;28;20117;-74
2022/05/10 00:27:17;;;;;;;6.45;2.03;;;;;;;;;;5010998;28;20076;-74
2022/05/10 00:29:43;;;;;;;5.80;1.58;;;;;;;;;;5015320;28;20025;-74
2022/05/10 00:32:09;;;;;;;3.28;1.20;;;;;;;;;;5014377;28;20056;-74
2022/05/10 00:34:35;;;;;;;4.47;1.15;;;;;;;;;;5015311;28;20051;-74
2022/05/10 00:37:01;;;;;;;6.70;1.80;;;;;;;;;;5012469;28;20037;-74
2022/05/10 00:39:27;;;;;;;6.00;2.13;;;;;;;;;;5020511;28;20018;-74
2022/05/10 00:42:05;;;;;;;9.90;3.22;;;;;;;;;;5016720;28;20027;-74
2022/05/10 00:44:34;;;;;;;4.45;1.90;;;;;;;;;;5014763;28;20107;-74
2022/05/10 00:47:06;;;;;;;6.30;2.00;;;;;;;;;;5022043;28;20465;-74
2022/05/10 00:49:38;;;;;;;5.15;1.70;;;;;;;;;;5017991;28;20033;-74
2022/05/10 00:52:25;;;;;;;4.30;2.10;;;;;;;;;;5013880;28;20069;-74
2022/05/10 00:54:55;;;;;;;8.75;2.70;;;;;;;;;;5017487;28;20025;-74
2022/05/10 00:57:32;;;;;;;17.42;2.47;;;;;;;;;;5012223;28;20479;-74
2022/05/10 01:00:03;;;;;;;11.95;2.40;;;;;;;;;;5017443;28;20503;-74
2022/05/10 01:02:48;;;;;;;7.72;2.45;;;;;;;;;;5013062;28;20029;-74
2022/05/10 01:05:24;;;;;;;5.53;1.92;;;;;;;;;;5016467;28;20129;-74
2022/05/10 01:07:55;;;;;;;8.70;2.67;;;;;;;;;;5012219;28;20026;-74
2022/05/10 01:10:41;;;;;;;6.50;2.03;;;;;;;;;;5014095;28;20484;-74
2022/05/10 01:13:28;;;;;;;10.23;2.58;;;;;;;;;;5009928;28;20049;-74
2022/05/10 01:16:06;;;;;;;8.57;2.58;;;;;;;;;;5009765;28;20180;-74
2022/05/10 01:18:32;;;;;;;6.03;1.58;;;;;;;;;;5015764;28;20030;-74
2022/05/10 01:21:06;;;;;;;11.50;2.15;;;;;;;;;;5013015;28;20132;-74
2022/05/10 01:23:45;;;;;;;7.32;1.90;;;;;;;;;;5014040;28;20108;-74
2022/05/10 01:26:20;;;;;;;7.75;2.60;;;;;;;;;;5013859;28;20108;-74
2022/05/10 01:28:49;;;;;;;6.47;1.95;;;;;;;;;;5010075;28;20515;-74
2022/05/10 01:31:19;;;;;;;7.05;1.85;;;;;;;;;;5017487;28;20113;-74
2022/05/10 01:33:48;;;;;;;6.75;2.10;;;;;;;;;;5016062;28;20117;-74
2022/05/10 01:36:14;;;;;;;6.70;1.92;;;;;;;;;;5014264;28;20029;-74
2022/05/10 01:38:40;;;;;;;7.68;1.75;;;;;;;;;;5015879;28;20056;-74
2022/05/10 01:41:12;;;;;;;7.40;1.77;;;;;;;;;;5014617;28;20040;-74
2022/05/10 01:43:44;;;;;;;6.80;1.55;;;;;;;;;;5012968;28;20415;-74
2022/05/10 01:46:12;;;;;;;6.05;1.70;;;;;;;;;;5013880;28;20037;-74
2022/05/10 01:48:39;;;;;;;4.45;1.50;;;;;;;;;;5013013;28;20030;-74
2022/05/10 01:51:13;;;;;;;4.40;1.88;;;;;;;;;;5017885;28;20367;-74
2022/05/10 01:53:40;;;;;;;5.40;2.00;;;;;;;;;;5012508;28;20088;-74
2022/05/10 01:56:06;;;;;;;4.25;1.10;;;;;;;;;;5020518;28;20080;-74
2022/05/10 01:58:34;;;;;;;3.92;1.27;;;;;;;;;;5014279;28;20764;-74
2022/05/10 02:01:02;;;;;;;3.95;1.63;;;;;;;;;;5018292;28;20550;-74
2022/05/10 02:03:35;;;;;;;7.90;2.25;;;;;;;;;;5015636;28;20037;-74
2022/05/10 02:06:20;;;;;;;13.18;1.25;;;;;;;;;;5019894;28;20091;-74
2022/05/10 02:08:45;;;;;;;2.70;1.38;;;;;;;;;;5019471;28;20112;-74
2022/05/10 02:11:13;;;;;;;6.80;2.55;;;;;;;;;;5017987;28;20112;-74
2022/05/10 02:13:42;;;;;;;6.50;2.10;;;;;;;;;;5016978;28;20135;-74
2022/05/10 02:16:15;;;;;;;6.90;2.13;;;;;;;;;;5013729;28;20439;-74
2022/05/10 02:19:10;;;;;;;4.35;1.88;;;;;;;;;;5019062;28;20021;-74
2022/05/10 02:21:43;;;;;;;7.88;2.42;;;;;;;;;;5015244;28;20124;-74
2022/05/10 02:24:19;;;;;;;2.92;1.40;;;;;;;;;;5016583;28;20630;-74
2022/05/10 02:26:47;;;;;;;4.40;1.80;;;;;;;;;;5017487;28;20486;-74
2022/05/10 02:29:20;;;;;;;4.13;1.73;;;;;;;;;;5016752;28;20040;-74
2022/05/10 02:34:34;;;;;;;2.97;1.30;;;;;;;;;;5020620;28;20060;-79
2022/05/10 02:37:01;;;;;;;5.57;1.50;;;;;;;;;;5019265;28;20035;-74
2022/05/10 02:39:27;;;;;;;4.57;1.83;;;;;;;;;;5017360;28;20064;-74
2022/05/10 02:41:53;;;;;;;4.28;1.40;;;;;;;;;;5013364;28;20045;-74
2022/05/10 02:44:19;;;;;;;6.35;1.65;;;;;;;;;;5019756;28;20034;-74
2022/05/10 02:46:45;;;;;;;6.35;1.38;;;;;;;;;;5016748;28;20037;-74
2022/05/10 02:49:11;;;;;;;3.40;1.52;;;;;;;;;;5017200;28;20430;-74
2022/05/10 02:51:37;;;;;;;6.75;1.83;;;;;;;;;;5015730;28;20042;-74
2022/05/10 02:54:03;;;;;;;3.80;1.25;;;;;;;;;;5021278;28;20036;-74
2022/05/10 02:56:30;;;;;;;3.38;1.30;;;;;;;;;;5015542;28;20064;-74
2022/05/10 02:58:59;;;;;;;2.63;1.02;;;;;;;;;;5018694;28;20038;-74
2022/05/10 03:01:40;;;;;;;4.53;0.95;;;;;;;;;;5012217;28;20038;-74
2022/05/10 03:04:07;;;;;;;3.38;1.40;;;;;;;;;;5016628;28;20121;-74
2022/05/10 03:06:36;;;;;;;3.83;1.40;;;;;;;;;;5012294;28;20057;-74
2022/05/10 03:09:03;;;;;;;6.40;2.08;;;;;;;;;;5020636;28;20113;-74
2022/05/10 03:11:29;;;;;;;3.35;1.23;;;;;;;;;;5012516;28;20394;-74
2022/05/10 03:13:55;;;;;;;4.07;1.27;;;;;;;;;;5017797;28;20104;-74
2022/05/10 03:16:24;;;;;;;4.32;1.42;;;;;;;;;;5018069;28;20033;-74
2022/05/10 03:18:51;;;;;;;3.47;1.40;;;;;;;;;;5015737;28;20108;-74
2022/05/10 03:21:18;;;;;;;4.63;1.40;;;;;;;;;;5014426;28;20034;-74
2022/05/10 03:23:44;;;;;;;6.90;1.33;;;;;;;;;;5015045;28;20033;-74
2022/05/10 03:26:13;;;;;;;5.40;1.40;;;;;;;;;;5014967;28;20467;-74
2022/05/10 03:28:39;;;;;;;6.40;1.23;;;;;;;;;;5016303;28;20507;-74
2022/05/10 03:31:07;;;;;;;3.65;1.40;;;;;;;;;;5017397;28;20112;-74
2022/05/10 03:33:33;;;;;;;6.38;1.70;;;;;;;;;;5019105;28;20038;-74
2022/05/10 03:35:59;;;;;;;5.07;1.55;;;;;;;;;;5018973;28;20081;-74
2022/05/10 03:38:24;;;;;;;4.72;1.42;;;;;;;;;;5020129;28;20716;-74
2022/05/10 03:40:50;;;;;;;2.50;0.90;;;;;;;;;;5018674;28;20071;-74
2022/05/10 03:43:16;;;;;;;3.75;1.33;;;;;;;;;;5012678;28;20041;-74
2022/05/10 03:45:42;;;;;;;5.03;1.20;;;;;;;;;;5014248;28;20041;-74
2022/05/10 03:48:09;;;;;;;3.95;1.77;;;;;;;;;;5015396;28;20065;-74
2022/05/10 03:50:35;;;;;;;3.38;1.67;;;;;;;;;;5017515;28;20044;-74
2022/05/10 03:53:01;;;;;;;5.13;2.22;;;;;;;;;;5017814;28;20124;-74
2022/05/10 03:55:28;;;;;;;8.18;1.95;;;;;;;;;;5018614;28;20029;-74
2022/05/10 03:57:55;;;;;;;4.65;1.52;;;;;;;;;;5012997;28;20040;-74
2022/05/10 04:00:23;;;;;;;6.07;1.75;;;;;;;;;;5015405;28;20662;-74
2022/05/10 04:02:49;;;;;;;4.43;1.50;;;;;;;;;;5015072;28;20038;-74
2022/05/10 04:05:15;;;;;;;4.15;1.35;;;;;;;;;;5018049;28;20045;-74
2022/05/10 04:07:41;;;;;;;2.42;1.27;;;;;;;;;;5012880;28;20109;-74
2022/05/10 04:10:08;;;;;;;5.80;1.38;;;;;;;;;;5017268;28;20030;-74
2022/05/10 04:12:34;;;;;;;4.60;1.42;;;;;;;;;;5017196;28;20075;-74
2022/05/10 04:15:00;;;;;;;5.15;1.55;;;;;;;;;;5012022;28;20379;-74
2022/05/10 04:17:26;;;;;;;4.95;1.70;;;;;;;;;;5013663;28;20064;-74
2022/05/10 04:19:52;;;;;;;6.57;2.30;;;;;;;;;;5015506;28;20034;-74
2022/05/10 04:22:19;;;;;;;4.03;2.05;;;;;;;;;;5015533;28;20061;-74
2022/05/10 04:24:45;;;;;;;5.38;2.08;;;;;;;;;;5014438;28;20036;-74
2022/05/10 04:27:11;;;;;;;4.65;1.77;;;;;;;;;;5019213;28;20487;-74
2022/05/10 04:29:37;;;;;;;5.85;2.20;;;;;;;;;;5016686;28;20080;-74
2022/05/10 04:32:03;;;;;;;7.20;2.47;;;;;;;;;;5011385;28;20038;-74
2022/05/10 04:34:29;;;;;;;6.25;2.25;;;;;;;;;;5016541;28;20510;-74
2022/05/10 04:36:55;;;;;;;4.97;2.22;;;;;;;;;;5013786;28;20049;-74
2022/05/10 04:39:21;;;;;;;7.53;2.13;;;;;;;;;;5012869;28;20034;-75
2022/05/10 04:41:50;;;;;;;6.43;2.22;;;;;;;;;;5015853;28;20099;-74
2022/05/10 04:44:16;;;;;;;8.27;1.85;;;;;;;;;;5017565;28;20045;-74
2022/05/10 04:46:42;;;;;;;7.15;1.23;;;;;;;;;;5012997;28;20065;-74
2022/05/10 04:49:10;;;;;;;5.85;2.17;;;;;;;;;;5009157;28;20053;-74
2022/05/10 04:51:36;;;;;;;7.25;2.38;;;;;;;;;;5013241;28;20418;-74
2022/05/10 04:54:03;;;;;;;7.85;2.08;;;;;;;;;;5012685;28;20144;-74
2022/05/10 04:56:29;;;;;;;6.10;2.30;;;;;;;;;;5013966;28;20466;-74
2022/05/10 04:58:55;;;;;;;5.80;1.73;;;;;;;;;;5025192;28;20030;-74
2022/05/10 05:01:22;;;;;;;6.32;1.33;;;;;;;;;;5013494;28;20034;-74
2022/05/10 05:03:49;;;;;;;8.30;1.40;;;;;;;;;;5013637;28;20539;-74
2022/05/10 05:06:16;;;;;;;6.05;2.33;;;;;;;;;;5012077;28;20137;-74
2022/05/10 05:08:42;;;;;;;7.25;2.22;;;;;;;;;;5017465;28;20115;-74
2022/05/10 05:11:08;;;;;;;7.40;2.15;;;;;;;;;;5016388;28;20061;-74
2022/05/10 05:13:34;;;;;;;5.38;2.10;;;;;;;;;;5013606;28;20039;-74
2022/05/10 05:16:00;;;;;;;4.72;1.50;;;;;;;;;;5017005;28;20781;-74
2022/05/10 05:18:26;;;;;;;4.55;1.10;;;;;;;;;;5019833;28;20028;-74
2022/05/10 05:20:52;;;;;;;3.67;1.25;;;;;;;;;;5010379;28;20034;-74
2022/05/10 05:23:20;;;;;;;2.92;1.35;;;;;;;;;;5017089;28;20040;-74
2022/05/10 05:25:46;;;;;;;2.78;0.90;;;;;;;;;;5020474;28;20156;-74
2022/05/10 05:28:12;;;;;;;2.75;1.00;;;;;;;;;;5018713;28;20113;-74
2022/05/10 05:30:40;;;;;;;5.32;1.40;;;;;;;;;;5021854;28;20037;-74
2022/05/10 05:33:06;;;;;;;5.32;1.80;;;;;;;;;;5016891;28;20034;-74
2022/05/10 05:35:32;;;;;;;9.23;2.63;;;;;;;;;;5018097;28;20045;-74
2022/05/10 05:37:58;;;;;;;11.82;2.70;;;;;;;;;;5019295;28;20431;-74
2022/05/10 05:40:25;;;;;;;7.15;2.30;;;;;;;;;;5023684;28;20029;-74
2022/05/10 05:42:52;;;;;;;12.68;2.72;;;;;;;;;;5021569;28;20076;-74
2022/05/10 05:45:19;;;;;;;9.52;2.47;;;;;;;;;;5018348;28;20755;-74
2022/05/10 05:47:45;;;;;;;2.05;0.75;;;;;;;;;;5014711;28;20029;-74
2022/05/10 05:50:14;;;;;;;2.13;0.90;;;;;;;;;;5016776;28;20029;-74
2022/05/10 05:52:40;;;;;;;4.22;1.10;;;;;;;;;;5015891;28;20380;-74
2022/05/10 05:55:07;;;;;;;6.43;0.90;;;;;;;;;;5021299;28;20124;-74
2022/05/10 05:57:33;;;;;;;3.63;1.02;;;;;;;;;;5014795;28;20088;-74
2022/05/10 05:59:59;;;;;;;6.25;1.02;;;;;;;;;;5021013;28;20353;-74
2022/05/10 06:02:25;;;;;;;3.42;0.90;;;;;;;;;;5018159;28;20044;-74
2022/05/10 06:04:51;;;;;;;5.00;1.55;;;;;;;;;;5018613;28;20045;-74
2022/05/10 06:07:18;;;;;;;6.97;1.15;;;;;;;;;;5015622;28;20629;-74
2022/05/10 06:09:44;;;;;;;5.95;1.42;;;;;;;;;;5018753;28;20100;-74
2022/05/10 06:12:11;;;;;;;4.13;1.58;;;;;;;;;;5021685;28;20076;-74
2022/05/10 06:14:38;;;;;;;8.30;1.75;;;;;;;;;;5016249;28;20034;-74
2022/05/10 06:17:05;;;;;;;6.47;1.60;;;;;;;;;;5017578;28;20044;-75
2022/05/10 06:19:32;;;;;;;3.00;1.33;;;;;;;;;;5014434;28;20029;-74
2022/05/10 06:21:58;;;;;;;3.65;0.95;;;;;;;;;;5015192;28;20028;-74
2022/05/10 06:24:24;;;;;;;4.68;0.85;;;;;;;;;;5018689;28;20038;-74
2022/05/10 06:26:50;;;;;;;5.68;1.20;;;;;;;;;;5017829;28;20035;-74
2022/05/10 06:29:16;;;;;;;5.68;1.00;;;;;;;;;;5019779;28;20091;-74
2022/05/10 06:31:46;;;;;;;4.55;1.02;;;;;;;;;;5016387;28;20029;-74
2022/05/10 06:34:12;;;;;;;3.63;1.30;;;;;;;;;;5017849;28;20144;-74
2022/05/10 06:36:39;;;;;;;4.05;1.50;;;;;;;;;;5022314;28;20025;-74
2022/05/10 06:39:05;;;;;;;5.68;1.73;;;;;;;;;;5022678;28;20037;-74
2022/05/10 06:41:32;;;;;;;5.75;1.30;;;;;;;;;;5013228;28;20146;-74
2022/05/10 06:44:02;;;;;;;3.42;1.15;;;;;;;;;;5013634;28;20040;-74
2022/05/10 06:46:30;;;;;;;6.80;1.33;;;;;;;;;;5016470;28;20029;-75
2022/05/10 06:48:56;;;;;;;4.72;0.90;;;;;;;;;;5020755;28;20034;-74
2022/05/10 06:51:22;;;;;;;5.20;0.90;;;;;;;;;;5032548;28;20109;-74
2022/05/10 06:53:49;;;;;;;3.15;0.98;;;;;;;;;;5014778;28;20060;-75
2022/05/10 06:56:15;;;;;;;3.35;0.70;;;;;;;;;;5017215;28;20042;-74
2022/05/10 06:58:41;;;;;;;4.38;1.02;;;;;;;;;;5015679;28;20029;-74
2022/05/10 07:01:11;;;;;;;3.83;0.90;;;;;;;;;;5017197;28;20427;-75
2022/05/10 07:03:38;;;;;;;3.20;0.85;;;;;;;;;;5017742;28;20038;-74
2022/05/10 07:06:05;;;;;;;3.70;0.90;;;;;;;;;;5014708;28;20046;-75
2022/05/10 07:08:32;;;;;;;2.55;1.00;;;;;;;;;;5015734;28;20578;-74
2022/05/10 07:10:58;;;;;;;2.38;0.88;;;;;;;;;;5016430;28;20113;-74
2022/05/10 07:13:26;;;;;;;4.88;0.88;;;;;;;;;;5014923;28;20044;-74
2022/05/10 07:15:52;;;;;;;3.08;0.95;;;;;;;;;;5026608;28;20587;-75
2022/05/10 07:18:19;;;;;;;3.60;1.10;;;;;;;;;;5014853;28;20410;-74
2022/05/10 07:20:46;;;;;;;4.57;1.00;;;;;;;;;;5014124;28;20026;-74
2022/05/10 07:23:12;;;;;;;4.20;0.70;;;;;;;;;;5031418;28;20041;-74
2022/05/10 07:25:39;;;;;;;3.30;1.10;;;;;;;;;;5016073;28;20052;-74
2022/05/10 07:28:08;;;;;;;5.10;1.10;;;;;;;;;;5021609;28;20083;-74
2022/05/10 07:30:35;;;;;;;4.65;1.20;;;;;;;;;;5015375;28;20030;-74
2022/05/10 07:33:02;;;;;;;3.60;1.13;;;;;;;;;;5015376;28;20144;-74
2022/05/10 07:38:14;;;;;;;7.75;1.27;;;;;;;;;;5016873;28;20052;-74
2022/05/10 07:40:40;;;;;;;5.88;1.38;;;;;;;;;;5023021;28;20032;-74
2022/05/10 07:43:07;;;;;;;7.28;1.38;;;;;;;;;;5016057;28;20053;-74
2022/05/10 07:45:33;;;;;;;6.70;1.30;;;;;;;;;;5012994;28;20037;-74
2022/05/10 07:47:59;;;;;;;10.85;2.40;;;;;;;;;;5015937;28;20038;-74
2022/05/10 07:50:25;;;;;;;5.53;1.85;;;;;;;;;;5014200;28;20457;-74
2022/05/10 07:52:52;;;;;;;6.47;1.80;;;;;;;;;;5012037;28;20041;-75
2022/05/10 07:55:18;;;;;;;8.07;1.80;;;;;;;;;;5017189;28;20033;-74
2022/05/10 07:57:44;;;;;;;7.00;1.75;;;;;;;;;;5018946;28;20029;-74
2022/05/10 08:00:12;;;;;;;7.88;1.40;;;;;;;;;;5015692;28;20380;-74
2022/05/10 08:02:42;;;;;;;4.38;1.30;;;;;;;;;;5013525;28;20037;-74
2022/05/10 08:05:08;;;;;;;5.47;1.60;;;;;;;;;;5015856;28;20360;-74
2022/05/10 08:07:34;;;;;;;3.35;1.63;;;;;;;;;;5009661;28;20077;-74
2022/05/10 08:10:00;;;;;;;5.20;1.67;;;;;;;;;;5015856;28;20067;-75
2022/05/10 08:12:26;;;;;;;5.20;1.42;;;;;;;;;;5021429;28;20068;-74
2022/05/10 08:14:52;;;;;;;9.52;1.35;;;;;;;;;;5016774;28;20034;-74
2022/05/10 08:17:18;;;;;;;9.63;1.63;;;;;;;;;;5019731;28;20065;-74
2022/05/10 08:19:45;;;;;;;5.75;1.40;;;;;;;;;;5015931;28;20034;-75
2022/05/10 08:22:11;;;;;;;5.65;1.10;;;;;;;;;;5020433;28;20036;-74
2022/05/10 08:24:37;;;;;;;4.82;0.95;;;;;;;;;;5012727;28;20034;-74
2022/05/10 08:27:03;;;;;;;5.22;1.00;;;;;;;;;;5013185;28;20046;-74
2022/05/10 08:29:29;;;;;;;11.57;2.03;;;;;;;;;;5015005;28;20080;-74
2022/05/10 08:31:55;;;;;;;8.85;2.15;;;;;;;;;;5017114;28;20044;-74
2022/05/10 08:34:21;;;;;;;5.05;1.00;;;;;;;;;;5011299;28;20064;-74
2022/05/10 08:36:47;;;;;;;3.30;1.08;;;;;;;;;;5014908;28;20594;-74
2022/05/10 08:39:14;;;;;;;3.80;1.15;;;;;;;;;;5017697;28;20128;-75
2022/05/10 08:41:43;;;;;;;3.45;1.00;;;;;;;;;;5010109;28;20721;-74
2022/05/10 08:44:14;;;;;;;7.55;1.40;;;;;;;;;;5014045;28;20061;-74
2022/05/10 08:46:43;;;;;;;5.57;0.98;;;;;;;;;;5014727;28;20055;-74
2022/05/10 08:49:24;;;;;;;5.70;0.80;;;;;;;;;;5015552;28;20140;-74
2022/05/10 08:51:51;;;;;;;3.70;1.00;;;;;;;;;;5016616;28;20049;-74
2022/05/10 08:54:17;;;;;;;4.22;1.10;;;;;;;;;;5014520;28;20125;-74
2022/05/10 08:56:49;;;;;;;4.10;0.80;;;;;;;;;;5016363;28;20088;-74
2022/05/10 08:59:31;;;;;;;3.30;1.00;;;;;;;;;;5014025;28;20113;-74
2022/05/10 09:02:06;;;;;;;4.63;0.98;;;;;;;;;;5014990;28;20739;-74
2022/05/10 09:04:32;;;;;;;8.10;1.13;;;;;;;;;;5012411;28;20292;-74
2022/05/10 09:07:08;;;;;;;5.32;0.90;;;;;;;;;;5019973;28;20056;-75
2022/05/10 09:09:40;;;;;;;5.85;0.80;;;;;;;;;;5019033;28;20041;-75
2022/05/10 09:12:06;;;;;;;4.50;1.10;;;;;;;;;;5024243;28;20055;-74
2022/05/10 09:14:34;;;;;;;6.82;1.00;;;;;;;;;;5016993;28;20132;-75
2022/05/10 09:17:02;;;;;;;6.80;1.00;;;;;;;;;;5018105;28;20133;-74
2022/05/10 09:19:37;;;;;;;4.10;1.15;;;;;;;;;;5020136;28;20037;-74
2022/05/10 09:22:11;;;;;;;4.13;1.00;;;;;;;;;;5018661;28;20037;-75
2022/05/10 09:24:47;;;;;;;5.78;0.93;;;;;;;;;;5019121;28;20035;-74
2022/05/10 09:27:14;;;;;;;4.18;1.67;;;;;;;;;;5017190;28;20085;-75
2022/05/10 09:29:40;;;;;;;3.97;1.13;;;;;;;;;;5017532;28;20036;-75
2022/05/10 09:35:09;;;;;;;4.30;1.10;;;;;;;;;;5017686;28;20081;-74
2022/05/10 09:37:35;;;;;;;;;;;;;;;;;;5017116;28;20030;-74
2022/05/10 09:40:08;;;;;;;5.25;1.50;;;;;;;;;;5018486;28;19959;-74
2022/05/10 09:42:36;;;;;;;3.90;1.50;;;;;;;;;;5015994;28;20042;-75
2022/05/10 09:45:04;;;;;;;2.80;1.20;;;;;;;;;;5023135;28;20029;-75
2022/05/10 09:47:31;;;;;;;5.43;1.73;;;;;;;;;;5018254;28;20088;-74
2022/05/10 09:50:15;;;;;;;7.82;1.33;;;;;;;;;;5019513;28;20125;-74
2022/05/10 09:52:42;;;;;;;5.63;1.52;;;;;;;;;;5013662;28;20048;-74
2022/05/10 09:55:09;;;;;;;9.05;1.25;;;;;;;;;;5020044;28;20456;-74
2022/05/10 09:57:37;;;;;;;7.65;1.52;;;;;;;;;;5019200;28;20145;-74
2022/05/10 10:00:05;;;;;;;4.88;1.10;;;;;;;;;;5018375;28;20030;-74
2022/05/10 10:02:38;;;;;;;7.95;1.45;;;;;;;;;;5016043;28;20037;-74
2022/05/10 10:05:22;;;;;;;10.80;1.60;;;;;;;;;;5018483;28;20069;-74
2022/05/10 10:07:49;;;;;;;5.63;1.50;;;;;;;;;;5020770;28;20442;-74
2022/05/10 10:10:17;;;;;;;3.90;1.40;;;;;;;;;;5015910;28;20159;-75
2022/05/10 10:12:44;;;;;;;6.97;1.35;;;;;;;;;;5016781;28;20500;-74
2022/05/10 10:15:25;;;;;;;5.82;1.73;;;;;;;;;;5017022;28;20699;-74
2022/05/10 10:17:56;;;;;;;4.60;1.42;;;;;;;;;;5014114;28;20037;-74
2022/05/10 10:20:22;;;;;;;5.37;1.73;;;;;;;;;;5016438;28;20037;-74
2022/05/10 10:22:50;;;;;;;2.55;1.30;;;;;;;;;;5012700;28;20105;-75
2022/05/10 10:25:19;;;;;;;4.68;1.20;;;;;;;;;;5017186;28;20467;-75
2022/05/10 10:27:50;;;;;;;3.97;1.10;;;;;;;;;;5014960;28;20034;-75
2022/05/10 10:30:23;;;;;;;3.42;1.40;;;;;;;;;;5015732;28;20485;-74
2022/05/10 10:32:53;;;;;;;2.80;1.40;;;;;;;;;;5015208;28;20030;-74
2022/05/10 10:35:24;;;;;;;4.82;1.52;;;;;;;;;;5019264;28;20038;-74
2022/05/10 10:37:55;;;;;;;4.28;1.25;;;;;;;;;;5014246;28;20038;-75
2022/05/10 10:40:27;;;;;;;3.78;1.30;;;;;;;;;;5014646;28;20037;-74
2022/05/10 10:43:12;;;;;;;2.88;1.33;;;;;;;;;;5009009;28;20321;-74
2022/05/10 10:45:43;;;;;;;2.08;0.90;;;;;;;;;;5014256;28;20116;-74
2022/05/10 10:48:09;;;;;;;3.38;1.20;;;;;;;;;;5017874;28;20035;-75
2022/05/10 10:50:36;;;;;;;7.25;1.25;;;;;;;;;;5017324;28;20038;-74
2022/05/10 10:53:04;;;;;;;2.70;1.23;;;;;;;;;;5019166;28;20036;-74
2022/05/10 10:55:41;;;;;;;2.70;1.52;;;;;;;;;;5016679;28;20519;-75
2022/05/10 10:58:12;;;;;;;4.60;1.52;;;;;;;;;;5020404;28;20034;-74
2022/05/10 11:00:38;;;;;;;;;;;;;;;;;;5017452;28;20499;-74
2022/05/10 11:03:09;;;;;;;4.10;1.40;;;;;;;;;;5015700;28;19914;-75
2022/05/10 11:05:55;;;;;;;5.22;1.48;;;;;;;;;;5016251;28;20083;-75
2022/05/10 11:08:34;;;;;;;16.15;1.88;;;;;;;;;;5012682;28;20807;-75
2022/05/10 11:11:03;;;;;;;3.38;1.23;;;;;;;;;;5014712;28;20064;-75
2022/05/10 11:13:42;;;;;;;3.15;1.50;;;;;;;;;;5014658;28;20037;-74
2022/05/10 11:16:26;;;;;;;3.60;1.30;;;;;;;;;;5018478;28;20025;-74
2022/05/10 11:19:10;;;;;;;3.92;1.60;;;;;;;;;;5014448;28;20145;-74
2022/05/10 11:21:36;;;;;;;2.97;1.30;;;;;;;;;;5017587;28;20029;-75
2022/05/10 11:24:19;;;;;;;3.17;1.40;;;;;;;;;;5014292;28;20049;-74
2022/05/10 11:26:45;;;;;;;2.50;1.27;;;;;;;;;;5013699;28;20060;-74
2022/05/10 11:29:20;;;;;;;2.75;1.20;;;;;;;;;;5019215;28;20588;-75
2022/05/10 11:31:46;;;;;;;5.10;1.60;;;;;;;;;;5018926;28;20026;-75
2022/05/10 11:34:27;;;;;;;8.93;1.45;;;;;;;;;;5016423;28;20082;-75
2022/05/10 11:36:54;;;;;;;4.95;1.98;;;;;;;;;;5014664;28;20034;-75
2022/05/10 11:39:21;;;;;;;2.53;1.20;;;;;;;;;;5015166;28;20467;-75
2022/05/10 11:42:06;;;;;;;3.47;1.45;;;;;;;;;;5015752;28;20076;-75
2022/05/10 11:44:43;;;;;;;4.95;1.60;;;;;;;;;;5016844;28;20525;-74
2022/05/10 11:47:17;;;;;;;3.40;1.60;;;;;;;;;;5015750;28;20034;-74
2022/05/10 11:49:46;;;;;;;3.70;1.40;;;;;;;;;;5014636;28;20132;-75
2022/05/10 11:52:31;;;;;;;5.68;1.65;;;;;;;;;;5016959;28;20071;-75
2022/05/10 11:55:06;;;;;;;3.83;1.52;;;;;;;;;;5019487;28;20076;-74
2022/05/10 11:57:33;;;;;;;3.63;1.60;;;;;;;;;;5022309;28;20084;-75
2022/05/10 12:00:17;;;;;;;5.10;2.10;;;;;;;;;;5013217;28;20037;-75
2022/05/10 12:02:45;;;;;;;5.70;1.40;;;;;;;;;;5016939;28;20045;-75
2022/05/10 12:05:14;;;;;;;3.83;1.50;;;;;;;;;;5016543;28;20116;-75
2022/05/10 12:07:44;;;;;;;7.15;1.70;;;;;;;;;;5015376;28;20037;-75
2022/05/10 12:10:22;;;;;;;3.10;1.42;;;;;;;;;;5011750;28;20092;-75
2022/05/10 12:12:48;;;;;;;4.07;1.77;;;;;;;;;;5015114;28;20546;-75
2022/05/10 12:23:59;;;;;;;6.00;1.80;;;;;;;;;;5008727;28;20092;-75
2022/05/10 12:26:34;;;;;;;6.18;1.58;;;;;;;;;;5017286;28;20131;-74
2022/05/10 12:29:00;;;;;;;5.63;1.58;;;;;;;;;;5015346;28;20479;-74
2022/05/10 12:31:26;;;;;;;4.75;1.50;;;;;;;;;;5015125;28;20067;-74
2022/05/10 12:33:59;;;;;;;11.52;1.38;;;;;;;;;;5015351;28;20464;-74
2022/05/10 12:36:32;;;;;;;6.30;1.70;;;;;;;;;;5015573;28;20034;-74
2022/05/10 12:39:17;;;;;;;5.25;1.75;;;;;;;;;;5017503;28;20100;-75
2022/05/10 12:41:58;;;;;;;3.90;1.80;;;;;;;;;;5019679;28;20048;-75
2022/05/10 12:44:37;;;;;;;5.75;2.25;;;;;;;;;;5017092;28;20065;-74
2022/05/10 12:47:12;;;;;;;6.00;1.95;;;;;;;;;;5015101;28;20056;-75
2022/05/10 12:49:51;;;;;;;7.20;1.73;;;;;;;;;;5013887;28;20033;-74
2022/05/10 12:52:20;;;;;;;4.03;1.65;;;;;;;;;;5014693;28;20038;-74
2022/05/10 12:54:49;;;;;;;3.65;1.58;;;;;;;;;;5016657;28;20034;-74
2022/05/10 12:57:33;;;;;;;2.47;1.40;;;;;;;;;;5015864;28;20061;-75
2022/05/10 13:00:02;;;;;;;4.78;1.80;;;;;;;;;;5014228;28;20062;-74
2022/05/10 13:02:29;;;;;;;4.72;1.83;;;;;;;;;;5015464;28;20117;-75
2022/05/10 13:04:57;;;;;;;5.70;1.63;;;;;;;;;;5012298;28;20030;-74
2022/05/10 13:07:26;;;;;;;5.05;1.67;;;;;;;;;;5010548;28;20046;-75
2022/05/10 13:10:20;;;;;;;3.78;1.38;;;;;;;;;;5022729;28;20371;-75
2022/05/10 13:12:54;;;;;;;5.93;2.20;;;;;;;;;;5013852;28;20493;-75
2022/05/10 13:15:22;;;;;;;5.82;1.50;;;;;;;;;;5028742;28;20033;-75
2022/05/10 13:17:51;;;;;;;2.50;1.42;;;;;;;;;;5016860;28;20079;-74
2022/05/10 13:20:21;;;;;;;5.90;1.85;;;;;;;;;;5012784;28;20030;-75
2022/05/10 13:22:52;;;;;;;6.07;1.88;;;;;;;;;;5016066;28;20030;-74
2022/05/10 13:25:39;;;;;;;5.13;1.52;;;;;;;;;;5014222;28;20037;-74
2022/05/10 13:28:08;;;;;;;6.95;2.03;;;;;;;;;;5015432;28;20040;-75
2022/05/10 13:30:35;;;;;;;4.90;1.98;;;;;;;;;;5014736;28;20034;-75
2022/05/10 13:33:01;;;;;;;4.70;1.90;;;;;;;;;;5016883;28;20044;-74
2022/05/10 13:35:30;;;;;;;4.20;1.48;;;;;;;;;;5011837;28;20034;-75
2022/05/10 13:37:57;;;;;;;7.03;2.13;;;;;;;;;;5015454;28;20037;-74
2022/05/10 13:40:25;;;;;;;3.47;1.50;;;;;;;;;;5017537;28;20044;-74
2022/05/10 13:42:51;;;;;;;3.35;1.55;;;;;;;;;;5014168;28;20033;-74
2022/05/10 13:45:22;;;;;;;8.93;1.67;;;;;;;;;;5013344;28;20107;-74
2022/05/10 13:47:50;;;;;;;4.10;1.73;;;;;;;;;;5011920;28;20127;-75
2022/05/10 13:50:21;;;;;;;6.35;1.60;;;;;;;;;;5013925;28;20068;-75
2022/05/10 13:52:49;;;;;;;4.50;1.73;;;;;;;;;;5010954;28;20030;-75
2022/05/10 13:55:17;;;;;;;9.25;1.52;;;;;;;;;;5017609;28;20065;-74
2022/05/10 13:57:55;;;;;;;5.43;1.95;;;;;;;;;;5017580;28;20122;-75
2022/05/10 14:00:24;;;;;;;3.00;1.52;;;;;;;;;;5015808;28;20068;-75
2022/05/10 14:02:54;;;;;;;5.63;1.67;;;;;;;;;;5017832;28;20053;-75
2022/05/10 14:05:21;;;;;;;3.85;1.40;;;;;;;;;;5016796;28;20049;-75
2022/05/10 14:07:49;;;;;;;6.53;1.70;;;;;;;;;;5017031;28;20554;-75
2022/05/10 14:10:18;;;;;;;3.17;1.40;;;;;;;;;;5016936;28;20144;-74
2022/05/10 14:12:49;;;;;;;3.13;1.20;;;;;;;;;;5019810;28;20033;-74
2022/05/10 14:15:18;;;;;;;2.78;1.25;;;;;;;;;;5018619;28;20181;-74
2022/05/10 14:17:53;;;;;;;4.72;1.75;;;;;;;;;;5021057;28;20490;-75
2022/05/10 14:20:24;;;;;;;2.83;1.50;;;;;;;;;;5018145;28;20025;-75
2022/05/10 14:22:54;;;;;;;5.90;1.43;;;;;;;;;;5019186;28;20532;-75
2022/05/10 14:25:23;;;;;;;7.43;1.40;;;;;;;;;;5012908;28;20075;-75
2022/05/10 14:28:17;;;;;;;3.70;1.33;;;;;;;;;;5023554;28;20566;-74
2022/05/10 14:30:46;;;;;;;3.42;1.33;;;;;;;;;;5015991;28;20049;-75
2022/05/10 14:33:20;;;;;;;4.25;1.10;;;;;;;;;;5018725;28;20037;-75
2022/05/10 14:35:48;;;;;;;2.60;1.20;;;;;;;;;;5011281;28;20021;-75
2022/05/10 14:38:17;;;;;;;2.85;1.17;;;;;;;;;;5012759;28;20029;-75
2022/05/10 14:40:46;;;;;;;8.07;1.50;;;;;;;;;;5014495;28;20030;-74
2022/05/10 14:43:13;;;;;;;2.40;1.33;;;;;;;;;;5017545;28;20033;-74
2022/05/10 14:45:43;;;;;;;5.85;1.23;;;;;;;;;;5018099;28;20083;-75
2022/05/10 14:48:45;;;;;;;3.28;1.10;;;;;;;;;;5012906;28;20436;-75
2022/05/10 14:51:11;;;;;;;;;;;;;;;;;;5008456;28;20038;-75
2022/05/10 14:53:39;;;;;;;7.82;1.30;;;;;;;;;;5018033;28;20390;-74
2022/05/10 14:56:05;;;;;;;4.50;1.13;;;;;;;;;;5020658;28;20037;-74
2022/05/10 14:58:33;;;;;;;6.97;1.25;;;;;;;;;;5016130;28;20084;-74
2022/05/10 15:01:01;;;;;;;5.20;0.82;;;;;;;;;;5014809;28;20088;-75
2022/05/10 15:03:27;;;;;;;4.55;0.95;;;;;;;;;;5016335;28;20037;-74
2022/05/10 15:05:53;;;;;;;4.55;1.02;;;;;;;;;;5018653;28;20203;-74
2022/05/10 15:08:20;;;;;;;3.42;1.00;;;;;;;;;;5018156;28;20392;-74
2022/05/10 15:10:48;;;;;;;3.83;0.90;;;;;;;;;;5017628;28;20164;-74
2022/05/10 15:13:14;;;;;;;4.00;0.90;;;;;;;;;;5015680;28;20069;-74